N98AL KDET-KYIP
Flight info
| Callsign | N98AL |
|---|---|
| Flight time | 0h 22m |
| Altitude | 1500 |
| Route | VFR |
| Aircraft | B06/L-V/C |
Departure
| Time | 2026-04-30 19:23 |
|---|---|
| Airport | Coleman A. Young Municipal Airport (KDET) |
Arrival
| Time | 2026-04-30 19:45 |
|---|---|
| Airport | Willow Run Airport (KYIP) |
| Time | Latitude | Longitude | Altitude | Speed | Heading |
|---|---|---|---|---|---|
| 2026-04-30 19:07 | 42.40391 | -83.00709 | 623 ft | 0 kts | 333° |
| 2026-04-30 19:19 | 42.40413 | -83.00733 | 628 ft | 6 kts | 287° |
| 2026-04-30 19:19 | 42.40420 | -83.00763 | 623 ft | 0 kts | 289° |
| 2026-04-30 19:20 | 42.40421 | -83.00768 | 625 ft | 2 kts | 290° |
| 2026-04-30 19:20 | 42.40472 | -83.00781 | 623 ft | 0 kts | 11° |
| 2026-04-30 19:21 | 42.40500 | -83.00770 | 628 ft | 5 kts | 21° |
| 2026-04-30 19:21 | 42.40565 | -83.00628 | 623 ft | 9 kts | 67° |
| 2026-04-30 19:22 | 42.40604 | -83.00523 | 631 ft | 16 kts | 57° |
| 2026-04-30 19:22 | 42.41280 | -83.01495 | 983 ft | 80 kts | 248° |
| 2026-04-30 19:23 | 42.39320 | -83.02011 | 1251 ft | 118 kts | 167° |
| 2026-04-30 19:24 | 42.37744 | -83.01147 | 1289 ft | 122 kts | 156° |
| 2026-04-30 19:24 | 42.36973 | -83.00671 | 1344 ft | 120 kts | 159° |
| 2026-04-30 19:24 | 42.35414 | -82.99701 | 1316 ft | 128 kts | 158° |
| 2026-04-30 19:25 | 42.33814 | -83.00668 | 1441 ft | 101 kts | 247° |
| 2026-04-30 19:26 | 42.33292 | -83.02451 | 1405 ft | 101 kts | 259° |
| 2026-04-30 19:26 | 42.32759 | -83.04214 | 1427 ft | 103 kts | 243° |
| 2026-04-30 19:26 | 42.32365 | -83.05009 | 1461 ft | 101 kts | 246° |
| 2026-04-30 19:27 | 42.31757 | -83.06779 | 1415 ft | 107 kts | 240° |
| 2026-04-30 19:27 | 42.30696 | -83.08216 | 1426 ft | 109 kts | 224° |
| 2026-04-30 19:28 | 42.30117 | -83.08796 | 1424 ft | 96 kts | 220° |
| 2026-04-30 19:28 | 42.29156 | -83.09778 | 1520 ft | 83 kts | 224° |
| 2026-04-30 19:29 | 42.28090 | -83.10594 | 1488 ft | 92 kts | 212° |
| 2026-04-30 19:29 | 42.27478 | -83.10960 | 1392 ft | 98 kts | 211° |
| 2026-04-30 19:30 | 42.25640 | -83.12235 | 1215 ft | 94 kts | 221° |
| 2026-04-30 19:30 | 42.24665 | -83.13329 | 1186 ft | 90 kts | 226° |
| 2026-04-30 19:31 | 42.23500 | -83.14093 | 1196 ft | 94 kts | 201° |
| 2026-04-30 19:31 | 42.22836 | -83.14221 | 1219 ft | 95 kts | 189° |
| 2026-04-30 19:31 | 42.21531 | -83.14341 | 1254 ft | 96 kts | 198° |
| 2026-04-30 19:32 | 42.20856 | -83.14510 | 1227 ft | 98 kts | 192° |
| 2026-04-30 19:32 | 42.20609 | -83.14777 | 1486 ft | 50 kts | 297° |
| 2026-04-30 19:32 | 42.20862 | -83.15321 | 1453 ft | 88 kts | 302° |
| 2026-04-30 19:32 | 42.21087 | -83.16110 | 1496 ft | 94 kts | 276° |
| 2026-04-30 19:33 | 42.21087 | -83.17033 | 1388 ft | 98 kts | 268° |
| 2026-04-30 19:33 | 42.21031 | -83.17894 | 1417 ft | 85 kts | 269° |
| 2026-04-30 19:33 | 42.20990 | -83.18649 | 1391 ft | 76 kts | 272° |
| 2026-04-30 19:33 | 42.20998 | -83.19351 | 1325 ft | 77 kts | 272° |
| 2026-04-30 19:34 | 42.21011 | -83.20041 | 1384 ft | 70 kts | 275° |
| 2026-04-30 19:34 | 42.21041 | -83.20685 | 1425 ft | 69 kts | 276° |
| 2026-04-30 19:34 | 42.21045 | -83.22012 | 1448 ft | 72 kts | 268° |
| 2026-04-30 19:35 | 42.21040 | -83.22694 | 1473 ft | 72 kts | 275° |
| 2026-04-30 19:35 | 42.21064 | -83.23390 | 1521 ft | 78 kts | 274° |
| 2026-04-30 19:35 | 42.21062 | -83.24142 | 1552 ft | 81 kts | 268° |
| 2026-04-30 19:35 | 42.21075 | -83.24867 | 1619 ft | 78 kts | 278° |
| 2026-04-30 19:36 | 42.21130 | -83.25635 | 1533 ft | 91 kts | 275° |
| 2026-04-30 19:36 | 42.21149 | -83.26510 | 1443 ft | 94 kts | 272° |
| 2026-04-30 19:36 | 42.21070 | -83.28224 | 1474 ft | 87 kts | 270° |
| 2026-04-30 19:37 | 42.21015 | -83.29079 | 1401 ft | 95 kts | 269° |
| 2026-04-30 19:37 | 42.20963 | -83.29969 | 1344 ft | 95 kts | 271° |
| 2026-04-30 19:37 | 42.20939 | -83.30818 | 1386 ft | 88 kts | 274° |
| 2026-04-30 19:37 | 42.20954 | -83.31644 | 1384 ft | 88 kts | 274° |
| 2026-04-30 19:38 | 42.20960 | -83.32460 | 1407 ft | 85 kts | 277° |
| 2026-04-30 19:38 | 42.21022 | -83.33204 | 1508 ft | 76 kts | 282° |
| 2026-04-30 19:38 | 42.21051 | -83.33923 | 1566 ft | 77 kts | 276° |
| 2026-04-30 19:38 | 42.21050 | -83.34674 | 1477 ft | 83 kts | 274° |
| 2026-04-30 19:39 | 42.21032 | -83.35452 | 1445 ft | 81 kts | 271° |
| 2026-04-30 19:39 | 42.20992 | -83.36187 | 1449 ft | 76 kts | 270° |
| 2026-04-30 19:39 | 42.20935 | -83.36890 | 1456 ft | 75 kts | 271° |
| 2026-04-30 19:39 | 42.20853 | -83.37582 | 1475 ft | 73 kts | 274° |
| 2026-04-30 19:40 | 42.20937 | -83.38250 | 1449 ft | 74 kts | 287° |
| 2026-04-30 19:40 | 42.21052 | -83.38913 | 1455 ft | 72 kts | 283° |
| 2026-04-30 19:40 | 42.21103 | -83.39583 | 1464 ft | 71 kts | 284° |
| 2026-04-30 19:40 | 42.21300 | -83.40220 | 1401 ft | 76 kts | 303° |
| 2026-04-30 19:41 | 42.21648 | -83.40761 | 1382 ft | 75 kts | 311° |
| 2026-04-30 19:41 | 42.21923 | -83.41344 | 1370 ft | 77 kts | 290° |
| 2026-04-30 19:41 | 42.21919 | -83.42075 | 1380 ft | 78 kts | 266° |
| 2026-04-30 19:41 | 42.21829 | -83.42774 | 1397 ft | 76 kts | 271° |
| 2026-04-30 19:42 | 42.21875 | -83.43496 | 1354 ft | 77 kts | 287° |
| 2026-04-30 19:42 | 42.22007 | -83.44164 | 1404 ft | 71 kts | 290° |
| 2026-04-30 19:42 | 42.22201 | -83.44763 | 1426 ft | 71 kts | 298° |
| 2026-04-30 19:42 | 42.22477 | -83.45358 | 1403 ft | 74 kts | 299° |
| 2026-04-30 19:43 | 42.22677 | -83.45976 | 1434 ft | 72 kts | 294° |
| 2026-04-30 19:43 | 42.22894 | -83.46581 | 1451 ft | 71 kts | 295° |
| 2026-04-30 19:43 | 42.23102 | -83.47179 | 1482 ft | 71 kts | 296° |
| 2026-04-30 19:44 | 42.23479 | -83.48489 | 1446 ft | 77 kts | 287° |
| 2026-04-30 19:44 | 42.23674 | -83.49171 | 1420 ft | 75 kts | 294° |
| 2026-04-30 19:44 | 42.23957 | -83.49712 | 1439 ft | 70 kts | 305° |
| 2026-04-30 19:44 | 42.24273 | -83.50227 | 1382 ft | 74 kts | 301° |
| 2026-04-30 19:45 | 42.24545 | -83.50906 | 1117 ft | 91 kts | 286° |
| 2026-04-30 19:45 | 42.24558 | -83.51724 | 1024 ft | 78 kts | 260° |
| 2026-04-30 19:45 | 42.24417 | -83.52260 | 931 ft | 44 kts | 271° |
| 2026-04-30 19:45 | 42.24419 | -83.52503 | 811 ft | 19 kts | 276° |
| 2026-04-30 19:46 | 42.24428 | -83.52570 | 716 ft | 2 kts | 275° |
| 2026-04-30 19:46 | 42.24433 | -83.52638 | 744 ft | 8 kts | 274° |
| 2026-04-30 19:46 | 42.24428 | -83.52730 | 732 ft | 20 kts | 270° |
| 2026-04-30 19:46 | 42.24419 | -83.52897 | 714 ft | 11 kts | 272° |
| 2026-04-30 19:47 | 42.24395 | -83.52965 | 712 ft | 5 kts | 217° |
| 2026-04-30 19:47 | 42.24372 | -83.52969 | 716 ft | 4 kts | 194° |
| 2026-04-30 19:47 | 42.24344 | -83.52972 | 710 ft | 1 kts | 185° |
| 2026-04-30 19:47 | 42.24343 | -83.52972 | 708 ft | 0 kts | 188° |
| 2026-04-30 19:48 | 42.24327 | -83.52960 | 716 ft | 9 kts | 121° |
| 2026-04-30 19:48 | 42.24312 | -83.52773 | 721 ft | 26 kts | 93° |
| 2026-04-30 19:49 | 42.24314 | -83.52567 | 712 ft | 15 kts | 90° |
| 2026-04-30 19:49 | 42.24319 | -83.52400 | 716 ft | 13 kts | 94° |
| 2026-04-30 19:49 | 42.24310 | -83.52254 | 726 ft | 18 kts | 107° |
| 2026-04-30 19:50 | 42.24221 | -83.52054 | 760 ft | 37 kts | 140° |
| 2026-04-30 19:50 | 42.24061 | -83.51775 | 712 ft | 23 kts | 97° |
| 2026-04-30 19:50 | 42.24063 | -83.51648 | 707 ft | 7 kts | 84° |
| 2026-04-30 19:50 | 42.24063 | -83.51583 | 738 ft | 9 kts | 127° |
| 2026-04-30 19:51 | 42.24030 | -83.51504 | 729 ft | 7 kts | 157° |
| 2026-04-30 19:51 | 42.24020 | -83.51469 | 759 ft | 5 kts | 191° |
| 2026-04-30 19:51 | 42.23943 | -83.51421 | 767 ft | 14 kts | 355° |
| 2026-04-30 19:51 | 42.24047 | -83.51420 | 748 ft | 12 kts | 64° |
| 2026-04-30 19:52 | 42.24070 | -83.51286 | 711 ft | 13 kts | 90° |
| 2026-04-30 19:52 | 42.24079 | -83.51223 | 698 ft | 0 kts | 91° |
| 2026-04-30 19:52 | 42.24060 | -83.51208 | 701 ft | 4 kts | 186° |
| 2026-04-30 19:53 | 42.24048 | -83.51205 | 698 ft | 0 kts | 180° |